createdAt,value
2018-05-18T00:00:59.457Z,77.40
2018-05-18T00:03:27.711Z,77.00
2018-05-18T00:05:55.990Z,77.50
2018-05-18T00:08:25.014Z,77.40
2018-05-18T00:10:53.343Z,77.40
2018-05-18T00:13:22.429Z,77.40
2018-05-18T00:15:51.482Z,76.70
2018-05-18T00:18:19.779Z,76.70
2018-05-18T00:20:48.043Z,75.20
2018-05-18T00:23:16.330Z,75.40
2018-05-18T00:25:44.637Z,78.20
2018-05-18T00:28:13.013Z,77.30
2018-05-18T00:30:41.370Z,77.10
2018-05-18T00:33:09.669Z,77.90
2018-05-18T00:35:37.962Z,74.90
2018-05-18T00:38:06.226Z,78.50
2018-05-18T00:40:34.715Z,79.70
2018-05-18T00:43:02.966Z,78.90
2018-05-18T00:45:32.170Z,76.80
2018-05-18T00:48:01.292Z,77.20
2018-05-18T00:50:29.634Z,77.10
2018-05-18T00:52:57.892Z,75.20
2018-05-18T00:55:41.196Z,75.90
2018-05-18T00:58:09.660Z,79.10
2018-05-18T01:00:37.938Z,76.40
2018-05-18T01:03:06.436Z,79.00
2018-05-18T01:05:34.780Z,77.20
2018-05-18T01:08:03.035Z,79.60
2018-05-18T01:10:32.133Z,79.10
2018-05-18T01:13:00.390Z,79.00
2018-05-18T01:15:29.406Z,77.20
2018-05-18T01:17:57.737Z,77.10
2018-05-18T01:20:25.987Z,77.90
2018-05-18T01:22:54.364Z,77.00
2018-05-18T01:25:22.726Z,78.00
2018-05-18T01:27:51.005Z,77.40
2018-05-18T01:30:19.401Z,78.30
2018-05-18T01:32:47.698Z,78.10
2018-05-18T01:35:15.976Z,78.20
2018-05-18T01:37:45.025Z,76.70
2018-05-18T01:40:13.278Z,76.70
2018-05-18T01:42:41.521Z,78.00
2018-05-18T01:45:09.874Z,76.00
2018-05-18T01:47:38.109Z,76.20
2018-05-18T01:50:06.537Z,77.40
2018-05-18T01:52:36.345Z,77.70
2018-05-18T01:55:04.589Z,77.70
2018-05-18T01:57:32.874Z,77.50
2018-05-18T02:00:01.238Z,77.40
2018-05-18T02:02:29.507Z,77.40
2018-05-18T02:04:57.775Z,78.50
2018-05-18T02:07:26.057Z,76.70
2018-05-18T02:09:54.318Z,76.60
2018-05-18T02:12:22.595Z,76.80
2018-05-18T02:14:50.866Z,76.40
2018-05-18T02:17:19.129Z,75.90
2018-05-18T02:19:48.167Z,74.90
2018-05-18T02:22:16.551Z,74.90
2018-05-18T02:24:44.882Z,74.10
2018-05-18T02:27:13.226Z,74.40
2018-05-18T02:29:41.493Z,74.80
2018-05-18T02:32:09.748Z,75.50
2018-05-18T02:34:38.038Z,77.00
2018-05-18T02:37:06.318Z,76.00
2018-05-18T02:39:34.661Z,74.80
2018-05-18T02:42:02.949Z,74.00
2018-05-18T02:44:31.206Z,75.50
2018-05-18T02:46:59.482Z,74.60
2018-05-18T02:49:27.730Z,74.20
2018-05-18T02:51:56.840Z,74.00
2018-05-18T02:54:25.161Z,74.00
2018-05-18T02:56:53.410Z,75.10
2018-05-18T02:59:21.673Z,74.10
2018-05-18T03:01:50.145Z,79.00
2018-05-18T03:04:18.435Z,75.80
2018-05-18T03:06:46.736Z,74.90
2018-05-18T03:09:15.018Z,76.80
2018-05-18T03:11:43.278Z,75.00
2018-05-18T03:14:11.541Z,75.70
2018-05-18T03:16:39.817Z,76.00
2018-05-18T03:19:08.062Z,76.70
2018-05-18T03:21:36.374Z,73.40
2018-05-18T03:24:04.638Z,77.40
2018-05-18T03:26:32.916Z,73.30
2018-05-18T03:29:02.731Z,79.40
2018-05-18T03:31:31.244Z,79.30
2018-05-18T03:33:59.493Z,74.20
2018-05-18T03:36:27.786Z,74.40
2018-05-18T03:38:56.061Z,76.40
2018-05-18T03:41:24.447Z,79.40
2018-05-18T03:43:52.729Z,79.30
2018-05-18T03:46:21.765Z,78.80
2018-05-18T03:48:50.039Z,78.80
2018-05-18T03:51:18.427Z,80.70
2018-05-18T03:53:46.720Z,77.90
2018-05-18T03:56:14.970Z,80.60
2018-05-18T03:58:43.261Z,81.10
2018-05-18T04:04:22.578Z,77.90
2018-05-18T04:07:02.793Z,80.50
2018-05-18T04:09:31.056Z,78.50
2018-05-18T04:11:59.321Z,79.00
2018-05-18T04:14:27.602Z,79.40
2018-05-18T04:16:55.873Z,79.60
2018-05-18T04:19:24.157Z,75.40
2018-05-18T04:21:52.472Z,77.10
2018-05-18T04:24:20.819Z,79.20
2018-05-18T04:26:49.079Z,74.40
2018-05-18T04:29:17.422Z,77.60
2018-05-18T04:31:46.433Z,78.40
2018-05-18T04:34:14.718Z,78.30
2018-05-18T04:36:43.077Z,75.30
2018-05-18T04:39:11.386Z,77.90
2018-05-18T04:41:39.665Z,77.90
2018-05-18T04:44:07.951Z,75.90
2018-05-18T04:46:36.297Z,75.10
2018-05-18T04:49:04.569Z,76.00
2018-05-18T04:51:32.884Z,74.90
2018-05-18T04:54:01.252Z,77.00
2018-05-18T04:56:30.327Z,77.90
2018-05-18T04:58:58.684Z,77.90
2018-05-18T05:01:26.883Z,76.10
2018-05-18T05:03:55.864Z,78.20
2018-05-18T05:06:24.330Z,76.50
2018-05-18T05:08:52.601Z,76.20
2018-05-18T05:11:20.889Z,76.40
2018-05-18T05:13:49.161Z,73.50
2018-05-18T05:16:17.449Z,76.60
2018-05-18T05:18:45.709Z,76.00
2018-05-18T05:21:14.053Z,75.10
2018-05-18T05:23:43.131Z,73.90
2018-05-18T05:26:11.398Z,74.00
2018-05-18T05:28:39.659Z,75.30
2018-05-18T05:31:07.934Z,73.50
2018-05-18T05:33:36.236Z,74.00
2018-05-18T05:36:04.622Z,76.10
2018-05-18T05:38:32.911Z,72.40
2018-05-18T05:41:01.218Z,70.60
2018-05-18T05:43:29.498Z,71.50
2018-05-18T05:46:05.577Z,71.20
2018-05-18T05:48:44.458Z,71.70
2018-05-18T05:51:16.017Z,71.30
2018-05-18T05:53:44.394Z,71.30
2018-05-18T05:56:12.649Z,72.50
2018-05-18T05:58:40.920Z,71.70
2018-05-18T06:01:09.174Z,71.20
2018-05-18T06:03:37.464Z,69.80
2018-05-18T06:06:05.921Z,69.50
2018-05-18T06:08:34.957Z,67.90
2018-05-18T06:11:03.231Z,67.70
2018-05-18T06:13:31.523Z,70.00
2018-05-18T06:15:59.786Z,67.40
2018-05-18T06:18:28.086Z,67.10
2018-05-18T06:20:56.374Z,65.30
2018-05-18T06:23:24.651Z,65.00
2018-05-18T06:25:52.963Z,66.90
2018-05-18T06:28:21.214Z,70.20
2018-05-18T06:30:50.313Z,73.90
2018-05-18T06:33:19.429Z,65.60
2018-05-18T06:35:47.733Z,65.60
2018-05-18T06:38:16.074Z,72.10
2018-05-18T06:40:45.224Z,68.10
2018-05-18T06:43:13.490Z,68.10
2018-05-18T06:45:41.771Z,68.50
2018-05-18T06:48:10.042Z,67.60
2018-05-18T06:50:38.393Z,67.80
2018-05-18T06:53:06.714Z,70.40
2018-05-18T06:55:35.000Z,73.60
2018-05-18T06:58:03.345Z,71.20
2018-05-18T07:00:31.615Z,69.80
2018-05-18T07:02:59.889Z,68.70
2018-05-18T07:05:28.144Z,70.00
2018-05-18T07:07:56.434Z,70.40
2018-05-18T07:10:24.781Z,68.10
2018-05-18T07:12:53.046Z,67.50
2018-05-18T07:15:22.062Z,66.90
2018-05-18T07:17:50.346Z,66.80
2018-05-18T07:20:18.626Z,67.30
2018-05-18T07:22:46.902Z,68.60
2018-05-18T07:25:15.988Z,67.10
2018-05-18T07:27:44.278Z,66.90
2018-05-18T07:30:12.779Z,68.20
2018-05-18T07:32:41.072Z,66.90
2018-05-18T07:35:10.214Z,67.00
2018-05-18T07:37:38.523Z,67.40
2018-05-18T07:40:06.742Z,65.30
2018-05-18T07:42:35.009Z,69.40
2018-05-18T07:45:03.293Z,67.70
2018-05-18T07:47:32.368Z,64.80
2018-05-18T07:50:01.415Z,66.20
2018-05-18T07:52:29.688Z,66.30
2018-05-18T07:54:57.946Z,68.50
2018-05-18T07:57:26.290Z,67.10
2018-05-18T07:59:55.358Z,65.10
2018-05-18T08:02:23.697Z,64.90
2018-05-18T08:04:52.005Z,64.10
2018-05-18T08:07:21.057Z,68.50
2018-05-18T08:09:49.358Z,68.40
2018-05-18T08:12:17.643Z,69.60
2018-05-18T08:14:45.942Z,69.20
2018-05-18T08:17:15.126Z,64.60
2018-05-18T08:19:43.389Z,64.50
2018-05-18T08:22:11.664Z,68.20
2018-05-18T08:24:39.942Z,65.30
2018-05-18T08:27:19.012Z,66.90
2018-05-18T08:29:47.308Z,66.50
2018-05-18T08:32:15.542Z,63.90
2018-05-18T08:34:44.010Z,64.60
2018-05-18T08:37:12.285Z,66.70
2018-05-18T08:39:40.604Z,64.90
2018-05-18T08:42:09.594Z,67.60
2018-05-18T08:44:38.629Z,64.80
2018-05-18T08:47:06.893Z,64.60
2018-05-18T08:49:35.189Z,64.90
2018-05-18T08:52:03.475Z,65.20
2018-05-18T08:54:31.796Z,63.40
2018-05-18T08:57:00.173Z,65.40
2018-05-18T08:59:28.491Z,62.10
2018-05-18T09:01:56.772Z,64.10
2018-05-18T09:04:25.023Z,65.60
2018-05-18T09:06:53.396Z,64.10
2018-05-18T09:09:21.650Z,63.90
2018-05-18T09:11:49.922Z,63.70
2018-05-18T09:14:18.185Z,61.30
2018-05-18T09:16:46.546Z,61.00
2018-05-18T09:19:14.759Z,68.30
2018-05-18T09:21:43.109Z,66.90
2018-05-18T09:24:12.122Z,67.00
2018-05-18T09:26:40.455Z,66.90
2018-05-18T09:29:08.788Z,64.50
2018-05-18T09:31:37.079Z,67.80
2018-05-18T09:34:05.396Z,59.40
2018-05-18T09:36:33.625Z,64.50
2018-05-18T09:39:14.223Z,64.80
2018-05-18T09:41:42.511Z,68.20
2018-05-18T09:44:11.550Z,61.70
2018-05-18T09:46:39.832Z,61.60
2018-05-18T09:49:08.201Z,65.90
2018-05-18T09:51:36.490Z,66.60
2018-05-18T09:54:04.804Z,67.10
2018-05-18T09:56:33.273Z,65.20
2018-05-18T09:59:02.346Z,66.90
2018-05-18T10:01:30.682Z,66.90
2018-05-18T10:03:58.977Z,59.00
2018-05-18T10:06:27.254Z,67.80
2018-05-18T10:08:55.626Z,64.80
2018-05-18T10:11:24.035Z,60.70
2018-05-18T10:13:52.323Z,58.00
2018-05-18T10:16:20.560Z,62.60
2018-05-18T10:19:00.653Z,66.30
2018-05-18T10:24:15.047Z,66.30
2018-05-18T10:26:44.062Z,59.30
2018-05-18T10:29:13.825Z,61.90
2018-05-18T10:31:42.873Z,60.00
2018-05-18T10:34:11.149Z,60.10
2018-05-18T10:36:42.554Z,56.70
2018-05-18T10:39:12.690Z,57.40
2018-05-18T10:41:41.004Z,60.70
2018-05-18T10:44:10.219Z,58.20
2018-05-18T10:46:38.653Z,58.10
2018-05-18T10:49:07.069Z,56.90
2018-05-18T10:51:35.374Z,60.30
2018-05-18T10:54:04.422Z,57.70
2018-05-18T10:56:32.762Z,57.80
2018-05-18T10:59:01.029Z,61.60
2018-05-18T11:01:29.353Z,58.90
2018-05-18T11:03:57.583Z,59.40
2018-05-18T11:06:25.854Z,58.30
2018-05-18T11:08:54.770Z,57.50
2018-05-18T11:11:23.061Z,58.10
2018-05-18T11:13:51.365Z,57.00
2018-05-18T11:16:20.594Z,56.80
2018-05-18T11:18:50.213Z,57.60
2018-05-18T11:21:19.763Z,59.50
2018-05-18T11:23:48.071Z,59.20
2018-05-18T11:26:17.167Z,55.80
2018-05-18T11:28:45.410Z,55.70
2018-05-18T11:31:13.663Z,56.20
2018-05-18T11:33:41.948Z,56.60
2018-05-18T11:36:10.223Z,56.60
2018-05-18T11:38:38.502Z,58.90
2018-05-18T11:43:54.008Z,62.10
2018-05-18T11:46:25.648Z,58.70
2018-05-18T11:49:04.041Z,61.30
2018-05-18T11:51:33.349Z,60.50
2018-05-18T11:54:08.322Z,55.80
2018-05-18T11:56:38.683Z,56.70
2018-05-18T11:59:06.955Z,57.50
2018-05-18T12:01:35.213Z,59.40
2018-05-18T12:04:10.709Z,57.20
2018-05-18T12:06:39.793Z,57.90
2018-05-18T12:09:08.278Z,57.70
2018-05-18T12:11:36.593Z,56.40
2018-05-18T12:14:05.651Z,60.70
2018-05-18T12:16:33.945Z,60.50
2018-05-18T12:19:03.023Z,55.40
2018-05-18T12:21:31.295Z,55.40
2018-05-18T12:23:59.557Z,56.40
2018-05-18T12:26:27.829Z,57.40
2018-05-18T12:28:56.115Z,58.70
2018-05-18T12:31:24.747Z,55.40
2018-05-18T12:33:53.108Z,59.80
2018-05-18T12:36:21.392Z,56.90
2018-05-18T12:38:50.440Z,57.20
2018-05-18T12:41:18.807Z,57.10
2018-05-18T12:43:47.092Z,56.70
2018-05-18T12:46:16.271Z,56.20
2018-05-18T12:48:44.569Z,56.00
2018-05-18T12:51:12.860Z,56.00
2018-05-18T12:53:41.124Z,54.60
2018-05-18T12:56:09.396Z,56.70
2018-05-18T12:58:37.693Z,53.60
2018-05-18T13:01:06.007Z,56.00
2018-05-18T13:03:35.019Z,56.40
2018-05-18T13:06:03.274Z,52.80
2018-05-18T13:08:31.532Z,53.80
2018-05-18T13:11:00.575Z,55.00
2018-05-18T13:13:28.852Z,54.80
2018-05-18T13:15:57.222Z,53.10
2018-05-18T13:18:25.499Z,53.80
2018-05-18T13:20:53.768Z,53.90
2018-05-18T13:23:22.062Z,57.50
2018-05-18T13:25:50.342Z,55.50
2018-05-18T13:28:18.693Z,56.00
2018-05-18T13:30:46.960Z,53.40
2018-05-18T13:33:15.231Z,53.50
2018-05-18T13:35:43.493Z,56.00
2018-05-18T13:38:11.792Z,56.20
2018-05-18T13:40:40.047Z,54.50
2018-05-18T13:43:08.334Z,51.80
2018-05-18T13:45:36.603Z,53.10
2018-05-18T13:48:04.882Z,54.10
2018-05-18T13:50:33.303Z,52.40
2018-05-18T13:53:01.587Z,51.20
2018-05-18T13:55:30.018Z,50.40
2018-05-18T13:57:58.322Z,54.30
2018-05-18T14:00:26.586Z,53.40
2018-05-18T14:03:02.603Z,52.30
2018-05-18T14:05:40.628Z,49.40
2018-05-18T14:08:08.901Z,52.60
2018-05-18T14:10:39.573Z,50.40
2018-05-18T14:13:18.301Z,54.60
2018-05-18T14:15:46.560Z,54.00
2018-05-18T14:18:14.819Z,50.70
2018-05-18T14:20:43.125Z,53.70
2018-05-18T14:23:11.384Z,55.40
2018-05-18T14:25:39.731Z,57.60
2018-05-18T14:28:08.006Z,53.80
2018-05-18T14:30:36.337Z,51.70
2018-05-18T14:33:04.971Z,54.10
2018-05-18T14:35:39.989Z,53.40
2018-05-18T14:38:13.241Z,54.20
2018-05-18T14:40:43.047Z,53.00
2018-05-18T14:43:12.954Z,55.20
2018-05-18T14:45:42.265Z,55.20
2018-05-18T14:48:10.626Z,52.50
2018-05-18T14:50:39.120Z,49.90
2018-05-18T14:53:07.380Z,50.70
2018-05-18T14:55:35.666Z,52.50
2018-05-18T14:58:03.931Z,53.50
2018-05-18T15:00:33.699Z,52.50
2018-05-18T15:03:01.976Z,52.70
2018-05-18T15:05:30.271Z,50.60
2018-05-18T15:07:58.666Z,51.20
2018-05-18T15:10:27.849Z,50.70
2018-05-18T15:12:57.083Z,51.30
2018-05-18T15:15:26.123Z,51.30
2018-05-18T15:17:54.461Z,51.40
2018-05-18T15:20:23.481Z,54.50
2018-05-18T15:22:51.766Z,54.60
2018-05-18T15:25:20.041Z,52.90
2018-05-18T15:27:48.601Z,52.40
2018-05-18T15:30:17.094Z,53.30
2018-05-18T15:32:45.360Z,51.80
2018-05-18T15:35:13.629Z,55.00
2018-05-18T15:37:42.091Z,53.00
2018-05-18T15:40:10.405Z,55.00
2018-05-18T15:42:38.726Z,52.50
2018-05-18T15:45:07.077Z,51.10
2018-05-18T15:47:35.365Z,52.90
2018-05-18T15:50:03.638Z,53.90
2018-05-18T15:52:31.906Z,51.70
2018-05-18T15:55:00.214Z,51.50
2018-05-18T15:57:28.561Z,52.60
2018-05-18T15:59:57.580Z,53.40
2018-05-18T16:02:25.851Z,53.60
2018-05-18T16:04:54.145Z,52.70
2018-05-18T16:07:23.209Z,51.40
2018-05-18T16:09:51.501Z,51.20
2018-05-18T16:12:19.859Z,51.60
2018-05-18T16:14:48.110Z,49.80
2018-05-18T16:17:17.606Z,52.00
2018-05-18T16:19:46.106Z,53.00
2018-05-18T16:22:14.496Z,55.20
2018-05-18T16:24:42.761Z,52.40
2018-05-18T16:27:11.085Z,51.00
2018-05-18T16:29:40.221Z,52.40
2018-05-18T16:32:12.669Z,52.30
2018-05-18T16:34:42.667Z,53.70
2018-05-18T16:37:11.755Z,52.40
2018-05-18T16:39:40.801Z,52.60
2018-05-18T16:42:09.110Z,52.50
2018-05-18T16:44:37.365Z,53.00
2018-05-18T16:47:06.561Z,52.90
2018-05-18T16:49:34.967Z,52.70
2018-05-18T16:52:09.638Z,51.90
2018-05-18T16:54:38.656Z,53.90
2018-05-18T16:57:06.953Z,51.30
2018-05-18T16:59:35.231Z,54.40
2018-05-18T17:02:05.002Z,55.00
2018-05-18T17:04:33.294Z,55.10
2018-05-18T17:07:01.616Z,54.50
2018-05-18T17:09:30.655Z,53.50
2018-05-18T17:11:59.075Z,53.60
2018-05-18T17:14:28.149Z,53.70
2018-05-18T17:16:56.556Z,53.60
2018-05-18T17:19:26.314Z,55.50
2018-05-18T17:21:54.591Z,55.50
2018-05-18T17:24:22.882Z,56.80
2018-05-18T17:26:51.223Z,55.10
2018-05-18T17:29:19.479Z,57.10
2018-05-18T17:31:47.803Z,55.20
2018-05-18T17:34:16.142Z,55.10
2018-05-18T17:36:45.155Z,59.20
2018-05-18T17:39:13.449Z,59.20
2018-05-18T17:41:41.745Z,56.80
2018-05-18T17:44:10.021Z,56.30
2018-05-18T17:46:39.064Z,55.80
2018-05-18T17:49:07.683Z,55.80
2018-05-18T17:51:39.520Z,57.00
2018-05-18T17:54:07.853Z,57.30
2018-05-18T17:56:36.117Z,57.00
2018-05-18T17:59:04.375Z,60.10
2018-05-18T18:01:32.650Z,58.10
2018-05-18T18:04:00.942Z,57.10
2018-05-18T18:06:29.976Z,58.10
2018-05-18T18:08:58.327Z,58.10
2018-05-18T18:11:27.388Z,58.80
2018-05-18T18:13:55.640Z,58.70
2018-05-18T18:16:25.414Z,60.50
2018-05-18T18:18:54.461Z,59.60
2018-05-18T18:21:24.994Z,59.50
2018-05-18T18:23:54.187Z,59.40
2018-05-18T18:26:22.483Z,59.50
2018-05-18T18:28:50.819Z,58.60
2018-05-18T18:31:19.077Z,58.20
2018-05-18T18:33:47.326Z,57.60
2018-05-18T18:36:16.397Z,57.20
2018-05-18T18:38:52.447Z,57.20
2018-05-18T18:41:20.908Z,58.70
2018-05-18T18:43:49.161Z,59.50
2018-05-18T18:46:17.428Z,58.60
2018-05-18T18:48:45.679Z,59.40
2018-05-18T18:51:14.744Z,59.30
2018-05-18T18:53:44.498Z,59.40
2018-05-18T18:56:13.636Z,60.80
2018-05-18T18:58:41.929Z,60.80
2018-05-18T19:01:10.144Z,59.70
2018-05-18T19:03:38.416Z,59.00
2018-05-18T19:06:06.662Z,58.20
2018-05-18T19:08:35.694Z,59.50
2018-05-18T19:11:03.961Z,59.40
2018-05-18T19:13:32.198Z,60.00
2018-05-18T19:16:01.274Z,59.30
2018-05-18T19:18:29.533Z,59.20
2018-05-18T19:20:57.823Z,60.70
2018-05-18T19:23:26.088Z,60.80
2018-05-18T19:25:54.315Z,64.10
2018-05-18T19:28:23.682Z,59.40
2018-05-18T19:30:51.951Z,60.80
2018-05-18T19:33:22.789Z,62.80
2018-05-18T19:35:51.032Z,61.40
2018-05-18T19:38:19.305Z,61.90
2018-05-18T19:40:47.570Z,62.30
2018-05-18T19:43:15.831Z,63.60
2018-05-18T19:45:44.145Z,60.70
2018-05-18T19:48:12.442Z,61.70
2018-05-18T19:50:40.766Z,61.60
2018-05-18T19:53:09.783Z,62.50
2018-05-18T19:55:38.046Z,62.40
2018-05-18T19:58:06.409Z,62.40
2018-05-18T20:00:34.719Z,62.80
2018-05-18T20:03:03.119Z,63.50
2018-05-18T20:05:32.191Z,62.50
2018-05-18T20:08:00.458Z,62.40
2018-05-18T20:10:28.723Z,65.70
2018-05-18T20:12:56.982Z,63.20
2018-05-18T20:15:25.279Z,65.90
2018-05-18T20:17:53.630Z,63.20
2018-05-18T20:20:21.809Z,61.30
2018-05-18T20:22:50.099Z,63.60
2018-05-18T20:25:18.463Z,63.70
2018-05-18T20:27:46.742Z,62.60
2018-05-18T20:30:15.156Z,61.50
2018-05-18T20:32:44.192Z,63.40
2018-05-18T20:35:12.481Z,63.50
2018-05-18T20:37:41.489Z,65.10
2018-05-18T20:40:09.772Z,65.10
2018-05-18T20:42:38.049Z,64.10
2018-05-18T20:45:06.483Z,62.10
2018-05-18T20:47:34.740Z,64.30
2018-05-18T20:50:03.085Z,64.80
2018-05-18T20:52:31.331Z,65.60
2018-05-18T20:54:59.570Z,64.00
2018-05-18T20:57:40.344Z,64.30
2018-05-18T21:00:09.714Z,64.40
2018-05-18T21:02:38.249Z,65.10
2018-05-18T21:05:07.242Z,64.70
2018-05-18T21:07:35.534Z,64.60
2018-05-18T21:10:03.812Z,65.50
2018-05-18T21:12:32.120Z,61.50
2018-05-18T21:15:00.350Z,63.10
2018-05-18T21:17:28.725Z,64.10
2018-05-18T21:19:56.985Z,63.90
2018-05-18T21:22:25.270Z,64.10
2018-05-18T21:24:53.539Z,62.30
2018-05-18T21:27:21.838Z,67.30
2018-05-18T21:29:50.116Z,64.40
2018-05-18T21:32:18.385Z,64.90
2018-05-18T21:34:46.721Z,66.00
2018-05-18T21:37:15.047Z,62.60
2018-05-18T21:39:43.295Z,65.00
2018-05-18T21:42:11.567Z,63.70
2018-05-18T21:44:41.846Z,64.10
2018-05-18T21:47:11.145Z,64.20
2018-05-18T21:49:39.656Z,65.40
2018-05-18T21:52:08.720Z,68.70
2018-05-18T21:54:36.974Z,68.60
2018-05-18T21:57:15.507Z,65.80
2018-05-18T21:59:44.821Z,68.00
2018-05-18T22:02:13.101Z,67.40
2018-05-18T22:04:41.439Z,66.50
2018-05-18T22:07:09.834Z,67.90
2018-05-18T22:09:38.257Z,65.70
2018-05-18T22:12:11.840Z,67.40
2018-05-18T22:14:40.133Z,66.30
2018-05-18T22:17:09.583Z,67.90
2018-05-18T22:19:39.057Z,66.60
2018-05-18T22:22:07.325Z,68.70
2018-05-18T22:24:35.599Z,68.90
2018-05-18T22:27:03.847Z,67.30
2018-05-18T22:29:32.854Z,65.80
2018-05-18T22:32:01.137Z,65.90
2018-05-18T22:34:29.447Z,65.30
2018-05-18T22:37:01.011Z,67.80
2018-05-18T22:39:29.454Z,67.80
2018-05-18T22:41:57.746Z,66.00
2018-05-18T22:44:27.038Z,66.70
2018-05-18T22:46:55.288Z,66.80
2018-05-18T22:49:23.563Z,69.00
2018-05-18T22:51:51.841Z,69.80
2018-05-18T22:54:20.074Z,67.60
2018-05-18T22:56:48.902Z,68.70
2018-05-18T22:59:22.224Z,67.70
2018-05-18T23:01:52.155Z,68.20
2018-05-18T23:04:20.498Z,68.40
2018-05-18T23:06:49.090Z,68.00
2018-05-18T23:09:22.907Z,68.50
2018-05-18T23:11:51.419Z,70.60
2018-05-18T23:14:21.520Z,68.60
2018-05-18T23:16:51.733Z,68.60
2018-05-18T23:19:20.832Z,68.20
2018-05-18T23:21:50.002Z,67.90
2018-05-18T23:24:18.671Z,67.80
2018-05-18T23:26:47.463Z,70.40
2018-05-18T23:29:15.747Z,69.10
2018-05-18T23:31:44.073Z,69.10
2018-05-18T23:34:12.377Z,69.50
2018-05-18T23:36:40.644Z,68.00
2018-05-18T23:39:08.926Z,68.90
2018-05-18T23:41:37.178Z,69.70
2018-05-18T23:44:05.531Z,69.80
2018-05-18T23:46:34.554Z,72.00
2018-05-18T23:49:02.829Z,71.00
2018-05-18T23:51:31.104Z,69.00
2018-05-18T23:53:59.368Z,68.70
2018-05-18T23:56:27.629Z,69.80
2018-05-18T23:58:55.959Z,70.70
